Time;durP1;ratioP1;P1;durP2;ratioP2;P2;SDS_P1;SDS_P2;PMS_P1;PMS_P2;Temp;Humidity;BMP_temperature;BMP_pressure;BME280_temperature;BME280_humidity;BME280_pressure;Samples;Min_cycle;Max_cycle;Signal;HPM_P1;HPM_P2
2022/04/08 00:00:44;;;;;;;3.20;0.30;;;10.30;1.00;;;;;;5095434;28;20453;-50
2022/04/08 00:03:11;;;;;;;0.43;0.20;;;10.20;1.00;;;;;;5093642;28;20548;-48
2022/04/08 00:05:38;;;;;;;0.30;0.10;;;10.20;1.00;;;;;;5095647;28;20952;-51
2022/04/08 00:08:05;;;;;;;0.40;0.20;;;10.20;1.00;;;;;;5095097;28;20526;-48
2022/04/08 00:10:32;;;;;;;0.83;0.20;;;10.20;1.00;;;;;;5095604;28;20532;-49
2022/04/08 00:13:00;;;;;;;2.10;0.40;;;10.20;1.00;;;;;;5094857;28;20889;-47
2022/04/08 00:15:27;;;;;;;0.87;0.33;;;10.20;1.00;;;;;;5096620;28;20453;-50
2022/04/08 00:17:54;;;;;;;2.40;0.10;;;10.10;1.00;;;;;;5096514;28;20491;-51
2022/04/08 00:20:22;;;;;;;1.30;0.20;;;10.10;1.00;;;;;;5096543;28;20544;-51
2022/04/08 00:22:49;;;;;;;1.00;0.13;;;10.20;1.00;;;;;;5095512;28;20535;-50
2022/04/08 00:25:16;;;;;;;0.33;0.10;;;10.20;1.00;;;;;;5096315;28;20553;-51
2022/04/08 00:27:43;;;;;;;0.47;0.20;;;10.20;1.00;;;;;;5096355;28;20477;-49
2022/04/08 00:30:11;;;;;;;0.80;0.20;;;10.20;1.00;;;;;;5096556;28;20458;-53
2022/04/08 00:32:38;;;;;;;0.40;0.20;;;10.30;1.00;;;;;;5093977;28;20500;-54
2022/04/08 00:35:06;;;;;;;0.47;0.10;;;10.20;1.00;;;;;;5092497;28;20513;-49
2022/04/08 00:37:34;;;;;;;0.40;0.20;;;10.20;1.00;;;;;;5096078;28;20541;-53
2022/04/08 00:40:00;;;;;;;0.80;0.10;;;10.30;1.00;;;;;;5095503;28;20465;-51
2022/04/08 00:42:27;;;;;;;1.00;0.20;;;10.30;1.00;;;;;;5094535;28;20557;-47
2022/04/08 00:44:54;;;;;;;0.40;0.23;;;10.20;1.00;;;;;;5095957;28;20513;-52
2022/04/08 00:47:22;;;;;;;0.43;0.20;;;10.30;1.00;;;;;;5095607;28;20489;-47
2022/04/08 00:49:50;;;;;;;0.40;0.10;;;10.20;1.00;;;;;;5095743;28;20564;-50
2022/04/08 00:52:16;;;;;;;1.37;0.30;;;10.30;1.00;;;;;;5095078;28;20548;-51
2022/04/08 00:54:45;;;;;;;1.87;0.20;;;10.30;1.00;;;;;;5094451;28;20535;-53
2022/04/08 00:57:13;;;;;;;1.60;0.20;;;10.30;1.00;;;;;;5094424;28;20545;-53
2022/04/08 00:59:40;;;;;;;0.50;0.20;;;10.30;1.00;;;;;;5093495;28;20530;-51
2022/04/08 01:02:07;;;;;;;0.53;0.20;;;10.20;1.00;;;;;;5093930;28;20552;-51
2022/04/08 01:04:35;;;;;;;0.40;0.20;;;10.20;1.00;;;;;;5093722;28;20834;-49
2022/04/08 01:07:03;;;;;;;0.50;0.20;;;10.30;1.00;;;;;;5094752;28;20817;-50
2022/04/08 01:09:31;;;;;;;0.77;0.20;;;10.20;1.00;;;;;;5093679;28;20575;-50
2022/04/08 01:11:58;;;;;;;0.60;0.20;;;10.20;1.00;;;;;;5095771;28;20450;-53
2022/04/08 01:14:24;;;;;;;1.27;0.20;;;10.10;1.00;;;;;;5096017;28;20481;-50
2022/04/08 01:16:51;;;;;;;1.93;0.30;;;10.10;1.00;;;;;;5094154;28;20533;-51
2022/04/08 01:19:18;;;;;;;2.13;0.20;;;10.00;1.00;;;;;;5093853;28;20481;-52
2022/04/08 01:21:46;;;;;;;0.40;0.20;;;9.90;1.00;;;;;;5091368;28;20542;-53
2022/04/08 01:24:15;;;;;;;0.63;0.20;;;10.00;1.00;;;;;;5094070;28;20453;-52
2022/04/08 01:26:43;;;;;;;1.57;0.20;;;10.00;1.00;;;;;;5094047;28;20496;-49
2022/04/08 01:29:15;;;;;;;0.40;0.20;;;10.00;1.00;;;;;;5091052;28;20508;-48
2022/04/08 01:31:45;;;;;;;1.53;0.20;;;9.90;1.00;;;;;;5091480;28;20539;-46
2022/04/08 01:34:12;;;;;;;0.70;0.10;;;9.90;1.00;;;;;;5091777;28;20888;-48
2022/04/08 01:36:39;;;;;;;0.30;0.20;;;10.00;1.00;;;;;;5092227;28;20908;-51
2022/04/08 01:39:06;;;;;;;1.27;0.20;;;10.00;1.00;;;;;;5091665;28;20907;-49
2022/04/08 01:41:33;;;;;;;0.40;0.20;;;10.00;1.00;;;;;;5093398;28;20548;-51
2022/04/08 01:44:01;;;;;;;1.60;0.17;;;10.00;1.00;;;;;;5094106;28;20477;-49
2022/04/08 01:46:28;;;;;;;0.80;0.20;;;10.00;1.00;;;;;;5094247;28;20536;-53
2022/04/08 01:48:55;;;;;;;1.93;0.20;;;10.00;1.00;;;;;;5093871;28;20489;-52
2022/04/08 01:51:23;;;;;;;0.33;0.20;;;10.00;1.00;;;;;;5094526;28;20506;-53
2022/04/08 01:53:50;;;;;;;0.60;0.20;;;10.00;1.00;;;;;;5098061;28;20449;-49
2022/04/08 01:56:17;;;;;;;0.60;0.20;;;9.90;1.00;;;;;;5098619;28;20502;-52
2022/04/08 01:58:44;;;;;;;1.63;0.20;;;9.80;1.00;;;;;;5097151;28;20899;-53
2022/04/08 02:01:12;;;;;;;0.80;0.20;;;9.80;1.00;;;;;;5098438;28;20791;-52
2022/04/08 02:03:39;;;;;;;0.97;0.20;;;9.80;1.00;;;;;;5099287;28;20449;-52
2022/04/08 02:06:06;;;;;;;0.97;0.30;;;9.80;1.00;;;;;;5099125;28;20881;-50
2022/04/08 02:08:33;;;;;;;1.53;0.30;;;9.80;1.00;;;;;;5098108;28;20481;-53
2022/04/08 02:11:00;;;;;;;0.90;0.30;;;9.80;1.00;;;;;;5099304;28;20447;-50
2022/04/08 02:13:27;;;;;;;1.67;0.20;;;9.80;1.00;;;;;;5098891;28;20544;-47
2022/04/08 02:15:54;;;;;;;0.50;0.20;;;9.70;1.00;;;;;;5098648;28;20808;-48
2022/04/08 02:18:22;;;;;;;0.47;0.20;;;9.60;1.00;;;;;;5095673;28;20920;-49
2022/04/08 02:20:50;;;;;;;1.23;0.20;;;9.60;1.00;;;;;;5097269;28;20901;-47
2022/04/08 02:23:17;;;;;;;1.20;0.27;;;9.60;1.00;;;;;;5097636;28;20855;-48
2022/04/08 02:25:46;;;;;;;0.80;0.20;;;9.60;1.00;;;;;;5096598;28;20798;-52
2022/04/08 02:28:13;;;;;;;0.30;0.20;;;9.60;1.00;;;;;;5096751;28;20487;-49
2022/04/08 02:30:40;;;;;;;0.80;0.10;;;9.50;1.00;;;;;;5098612;28;20540;-49
2022/04/08 02:33:06;;;;;;;1.80;0.20;;;9.50;1.00;;;;;;5098259;28;20485;-48
2022/04/08 02:35:35;;;;;;;1.30;0.23;;;9.60;1.00;;;;;;5097922;28;20446;-50
2022/04/08 02:38:02;;;;;;;0.37;0.10;;;9.50;1.00;;;;;;5095035;28;20466;-51
2022/04/08 02:40:28;;;;;;;2.60;0.20;;;9.50;1.00;;;;;;5096648;28;20533;-49
2022/04/08 02:42:55;;;;;;;0.40;0.30;;;9.40;1.00;;;;;;5096719;28;20459;-48
2022/04/08 02:45:22;;;;;;;2.40;0.20;;;9.50;1.00;;;;;;5095956;28;20499;-52
2022/04/08 02:47:49;;;;;;;1.03;0.20;;;9.50;1.00;;;;;;5096827;28;20453;-48
2022/04/08 02:50:16;;;;;;;0.50;0.10;;;9.60;1.00;;;;;;5097047;28;20477;-52
2022/04/08 02:52:44;;;;;;;0.50;0.20;;;9.60;1.00;;;;;;5096394;28;20494;-52
2022/04/08 02:55:11;;;;;;;0.40;0.20;;;9.50;1.00;;;;;;5097501;28;20528;-49
2022/04/08 02:57:44;;;;;;;0.60;0.20;;;9.60;1.00;;;;;;5095462;28;20564;-52
2022/04/08 03:00:13;;;;;;;0.30;0.10;;;9.70;1.00;;;;;;5098027;28;20445;-48
2022/04/08 03:02:40;;;;;;;1.53;0.20;;;9.70;1.00;;;;;;5098039;28;20481;-50
2022/04/08 03:05:08;;;;;;;0.57;0.20;;;9.70;1.00;;;;;;5096912;28;20821;-53
2022/04/08 03:07:35;;;;;;;1.17;0.20;;;9.70;1.00;;;;;;5097975;28;20541;-51
2022/04/08 03:10:05;;;;;;;0.40;0.20;;;9.70;1.00;;;;;;5096685;28;20485;-52
2022/04/08 03:12:32;;;;;;;1.43;0.20;;;9.50;1.00;;;;;;5097674;28;20549;-52
2022/04/08 03:14:59;;;;;;;0.40;0.10;;;9.40;1.00;;;;;;5096361;28;20977;-52
2022/04/08 03:17:26;;;;;;;1.00;0.20;;;9.30;1.00;;;;;;5097378;28;20963;-50
2022/04/08 03:19:53;;;;;;;2.23;0.20;;;9.20;1.00;;;;;;5097546;28;20473;-54
2022/04/08 03:22:20;;;;;;;0.83;0.20;;;9.40;1.00;;;;;;5097819;28;20481;-52
2022/04/08 03:24:47;;;;;;;2.30;0.20;;;9.50;1.00;;;;;;5096612;28;20461;-53
2022/04/08 03:27:16;;;;;;;0.60;0.30;;;9.40;1.00;;;;;;5097230;28;20450;-53
2022/04/08 03:29:43;;;;;;;1.70;0.30;;;9.60;1.00;;;;;;5097351;28;20495;-49
2022/04/08 03:32:11;;;;;;;4.77;0.30;;;9.60;1.00;;;;;;5096798;28;20564;-51
2022/04/08 03:34:39;;;;;;;1.27;0.20;;;9.50;1.00;;;;;;5094135;28;20544;-49
2022/04/08 03:37:06;;;;;;;0.30;0.10;;;9.40;1.00;;;;;;5095833;28;20484;-52
2022/04/08 03:39:33;;;;;;;0.30;0.20;;;9.30;1.00;;;;;;5096488;28;20544;-50
2022/04/08 03:42:00;;;;;;;0.37;0.20;;;9.30;1.00;;;;;;5096376;28;20450;-48
2022/04/08 03:44:28;;;;;;;1.07;0.20;;;9.30;1.00;;;;;;5094828;28;20489;-56
2022/04/08 03:46:55;;;;;;;0.30;0.17;;;9.40;1.00;;;;;;5096151;28;20536;-50
2022/04/08 03:49:22;;;;;;;1.07;0.20;;;9.40;1.00;;;;;;5096790;28;20761;-54
2022/04/08 03:51:49;;;;;;;0.40;0.20;;;9.40;1.00;;;;;;5096993;28;20507;-47
2022/04/08 03:54:18;;;;;;;0.53;0.20;;;9.30;1.00;;;;;;5095230;28;20556;-54
2022/04/08 03:56:45;;;;;;;0.83;0.20;;;9.20;1.00;;;;;;5095659;28;20460;-53
2022/04/08 03:59:12;;;;;;;3.30;0.20;;;9.10;1.00;;;;;;5096092;28;20450;-49
2022/04/08 04:01:40;;;;;;;1.30;0.23;;;9.20;1.00;;;;;;5093473;28;20503;-51
2022/04/08 04:04:07;;;;;;;0.60;0.20;;;9.10;1.00;;;;;;5093277;28;20548;-50
2022/04/08 04:06:34;;;;;;;0.40;0.10;;;9.20;1.00;;;;;;5093523;28;20818;-52
2022/04/08 04:09:00;;;;;;;1.10;0.20;;;9.30;1.00;;;;;;5093310;28;20465;-51
2022/04/08 04:11:27;;;;;;;0.90;0.13;;;9.30;1.00;;;;;;5093019;28;20450;-49
2022/04/08 04:13:55;;;;;;;0.57;0.30;;;9.30;1.00;;;;;;5090392;28;20465;-53
2022/04/08 04:16:21;;;;;;;1.17;0.30;;;9.20;1.00;;;;;;5094811;28;20453;-50
2022/04/08 04:18:50;;;;;;;0.30;0.10;;;9.20;1.00;;;;;;5095120;28;20499;-53
2022/04/08 04:21:16;;;;;;;2.20;0.30;;;9.10;1.00;;;;;;5094551;28;20856;-54
2022/04/08 04:23:43;;;;;;;0.40;0.20;;;9.20;1.00;;;;;;5095484;28;20450;-53
2022/04/08 04:26:10;;;;;;;0.70;0.30;;;9.00;1.00;;;;;;5094252;28;20531;-52
2022/04/08 04:28:37;;;;;;;0.90;0.20;;;9.00;1.00;;;;;;5094596;28;20421;-55
2022/04/08 04:31:06;;;;;;;1.33;0.23;;;9.00;1.00;;;;;;5095079;28;20537;-57
2022/04/08 04:33:33;;;;;;;1.20;0.30;;;9.20;1.00;;;;;;5093319;28;20463;-52
2022/04/08 04:36:01;;;;;;;2.33;0.30;;;9.20;1.00;;;;;;5093949;28;20517;-57
2022/04/08 04:38:28;;;;;;;0.80;0.30;;;9.30;1.00;;;;;;5095047;28;20452;-57
2022/04/08 04:40:55;;;;;;;0.80;0.20;;;9.20;1.00;;;;;;5093904;28;20237;-52
2022/04/08 04:43:22;;;;;;;0.50;0.20;;;9.10;1.00;;;;;;5096186;28;20445;-48
2022/04/08 04:45:49;;;;;;;0.40;0.20;;;9.10;1.00;;;;;;5095284;28;20552;-50
2022/04/08 04:48:18;;;;;;;1.33;0.30;;;9.10;1.00;;;;;;5096229;28;20931;-53
2022/04/08 04:50:46;;;;;;;0.67;0.30;;;9.00;1.00;;;;;;5094049;28;20477;-52
2022/04/08 04:53:15;;;;;;;0.63;0.20;;;8.90;1.00;;;;;;5096212;28;20719;-54
2022/04/08 04:55:42;;;;;;;1.13;0.50;;;8.90;1.00;;;;;;5095448;28;20488;-49
2022/04/08 04:58:08;;;;;;;1.67;0.20;;;8.80;1.00;;;;;;5094184;28;20544;-51
2022/04/08 05:00:35;;;;;;;0.63;0.20;;;8.70;1.00;;;;;;5091122;28;20540;-52
2022/04/08 05:03:03;;;;;;;0.83;0.20;;;8.60;1.00;;;;;;5091910;28;20768;-51
2022/04/08 05:05:30;;;;;;;0.50;0.20;;;8.60;1.00;;;;;;5093488;28;20449;-52
2022/04/08 05:07:57;;;;;;;0.50;0.20;;;8.60;1.00;;;;;;5094313;28;20785;-50
2022/04/08 05:10:26;;;;;;;0.90;0.40;;;8.60;1.00;;;;;;5093857;28;21009;-50
2022/04/08 05:12:52;;;;;;;0.37;0.20;;;8.60;1.00;;;;;;5092199;28;20897;-53
2022/04/08 05:15:19;;;;;;;0.73;0.10;;;8.60;1.00;;;;;;5094926;28;21021;-55
2022/04/08 05:17:46;;;;;;;2.00;0.20;;;8.60;1.00;;;;;;5092164;28;20488;-52
2022/04/08 05:20:13;;;;;;;0.60;0.30;;;8.70;99.90;;;;;;5087731;28;20513;-52
2022/04/08 05:22:41;;;;;;;1.13;0.20;;;8.80;49.90;;;;;;5093380;28;20508;-53
2022/04/08 05:25:10;;;;;;;0.90;0.20;;;8.90;1.00;;;;;;5095265;28;20519;-51
2022/04/08 05:27:38;;;;;;;2.20;0.20;;;9.00;1.00;;;;;;5083535;28;20826;-51
2022/04/08 05:30:07;;;;;;;3.93;0.20;;;9.00;1.00;;;;;;5094355;28;20574;-48
2022/04/08 05:32:34;;;;;;;0.60;0.20;;;9.00;1.00;;;;;;5095494;28;20492;-51
2022/04/08 05:35:01;;;;;;;0.40;0.20;;;9.10;1.00;;;;;;5091616;28;20670;-56
2022/04/08 05:37:28;;;;;;;1.17;0.20;;;9.20;1.00;;;;;;5096360;28;20485;-55
2022/04/08 05:39:56;;;;;;;0.70;0.30;;;9.30;1.00;;;;;;5094354;28;20782;-53
2022/04/08 05:42:23;;;;;;;1.40;0.30;;;9.30;1.00;;;;;;5095100;28;20534;-55
2022/04/08 05:44:51;;;;;;;0.60;0.20;;;9.40;1.00;;;;;;5095718;28;20501;-55
2022/04/08 05:47:18;;;;;;;2.80;0.20;;;9.50;1.00;;;;;;5093220;28;20547;-55
2022/04/08 05:49:45;;;;;;;0.40;0.20;;;9.60;1.00;;;;;;5095061;28;20477;-54
2022/04/08 05:52:12;;;;;;;0.30;0.10;;;9.60;1.00;;;;;;5083603;28;20865;-50
2022/04/08 05:54:39;;;;;;;0.67;0.30;;;9.60;1.00;;;;;;5075332;28;20789;-56
2022/04/08 05:57:06;;;;;;;0.50;0.17;;;9.50;1.00;;;;;;5084511;28;20889;-53
2022/04/08 05:59:37;;;;;;;0.30;0.10;;;9.40;1.00;;;;;;5085877;28;20430;-55
2022/04/08 06:02:06;;;;;;;1.37;0.30;;;9.40;1.00;;;;;;5093765;28;20510;-56
2022/04/08 06:04:33;;;;;;;0.37;0.20;;;9.40;2.20;;;;;;5096170;28;20446;-54
2022/04/08 06:07:00;;;;;;;1.47;0.27;;;9.40;1.00;;;;;;5093311;28;20986;-56
2022/04/08 06:09:27;;;;;;;1.37;0.20;;;9.40;78.10;;;;;;5095173;28;20445;-54
2022/04/08 06:11:54;;;;;;;0.40;0.10;;;9.40;59.20;;;;;;5079003;28;20541;-54
2022/04/08 06:14:21;;;;;;;4.57;0.50;;;9.30;60.30;;;;;;5077121;28;20549;-54
2022/04/08 06:16:48;;;;;;;0.70;0.20;;;9.30;99.90;;;;;;5090103;28;21020;-53
2022/04/08 06:19:16;;;;;;;0.47;0.23;;;9.10;99.90;;;;;;5094305;28;20449;-48
2022/04/08 06:21:43;;;;;;;0.90;0.20;;;9.00;22.40;;;;;;5092983;28;20442;-53
2022/04/08 06:24:10;;;;;;;0.40;0.20;;;9.00;99.90;;;;;;5095383;28;20898;-54
2022/04/08 06:26:38;;;;;;;0.70;0.20;;;9.10;1.00;;;;;;5092994;28;20498;-53
2022/04/08 06:29:05;;;;;;;1.80;0.20;;;9.20;1.00;;;;;;5094861;28;20533;-51
2022/04/08 06:31:32;;;;;;;0.40;0.20;;;9.10;1.00;;;;;;5095329;28;20910;-53
2022/04/08 06:33:59;;;;;;;0.40;0.10;;;9.00;1.00;;;;;;5094308;28;20922;-53
2022/04/08 06:36:29;;;;;;;0.70;0.27;;;8.80;1.00;;;;;;5091263;28;20454;-51
2022/04/08 06:38:55;;;;;;;0.43;0.23;;;8.90;99.90;;;;;;5084762;28;20947;-52
2022/04/08 06:41:23;;;;;;;1.63;0.20;;;9.00;1.00;;;;;;5093002;28;20535;-51
2022/04/08 06:43:50;;;;;;;0.40;0.20;;;9.20;1.00;;;;;;5089874;28;20515;-54
2022/04/08 06:46:17;;;;;;;0.60;0.20;;;9.10;21.70;;;;;;5090700;28;20469;-53
2022/04/08 06:48:44;;;;;;;0.40;0.20;;;9.20;99.90;;;;;;5090394;28;20461;-50
2022/04/08 06:51:10;;;;;;;0.40;0.20;;;9.20;1.00;;;;;;5093044;28;20539;-50
2022/04/08 06:53:39;;;;;;;0.50;0.20;;;9.20;99.90;;;;;;5093581;28;20481;-54
2022/04/08 06:56:06;;;;;;;0.70;0.20;;;9.30;99.90;;;;;;5085404;28;20560;-53
2022/04/08 06:58:38;;;;;;;0.50;0.20;;;9.10;1.00;;;;;;5082031;28;20449;-49
2022/04/08 07:01:06;;;;;;;1.47;0.20;;;9.00;99.90;;;;;;5088346;28;20450;-50
2022/04/08 07:03:33;;;;;;;0.90;0.40;;;8.90;99.90;;;;;;5084549;28;20438;-48
2022/04/08 07:06:00;;;;;;;2.30;0.30;;;8.90;1.00;;;;;;5092097;28;20975;-50
2022/04/08 07:08:27;;;;;;;1.30;0.20;;;8.90;99.90;;;;;;5086981;28;20533;-50
2022/04/08 07:10:55;;;;;;;0.60;0.27;;;8.80;99.90;;;;;;5094240;28;20478;-47
2022/04/08 07:13:22;;;;;;;1.33;0.10;;;8.60;1.00;;;;;;5087773;28;21080;-51
2022/04/08 07:15:49;;;;;;;0.40;0.20;;;8.70;1.00;;;;;;5091817;28;20448;-48
2022/04/08 07:18:16;;;;;;;0.57;0.10;;;8.50;1.00;;;;;;5092950;28;20553;-49
2022/04/08 07:20:43;;;;;;;1.13;0.20;;;8.40;1.00;;;;;;5094694;28;20964;-49
2022/04/08 07:23:09;;;;;;;1.30;0.20;;;8.40;1.00;;;;;;5093237;28;20523;-48
2022/04/08 07:25:38;;;;;;;2.50;0.30;;;8.40;1.00;;;;;;5078883;28;20537;-48
2022/04/08 07:28:07;;;;;;;3.20;0.30;;;8.50;1.00;;;;;;5090766;28;20519;-53
2022/04/08 07:30:34;;;;;;;1.00;0.20;;;8.70;1.00;;;;;;5094608;28;20473;-52
2022/04/08 07:33:03;;;;;;;0.40;0.20;;;8.60;1.00;;;;;;5088268;28;20515;-48
2022/04/08 07:35:33;;;;;;;1.30;0.30;;;8.40;1.00;;;;;;5079503;28;20749;-52
2022/04/08 07:38:00;;;;;;;0.30;0.10;;;8.20;1.00;;;;;;5092052;28;20476;-46
2022/04/08 07:40:27;;;;;;;0.40;0.20;;;8.20;14.70;;;;;;5092940;28;20445;-49
2022/04/08 07:42:54;;;;;;;0.80;0.40;;;8.10;20.20;;;;;;5085114;28;20548;-48
2022/04/08 07:45:27;;;;;;;0.50;0.30;;;8.00;1.00;;;;;;5091645;28;20517;-52
2022/04/08 07:47:55;;;;;;;0.43;0.20;;;8.00;1.00;;;;;;5095039;28;20457;-50
2022/04/08 07:50:22;;;;;;;0.50;0.20;;;7.90;34.30;;;;;;5086455;28;20478;-49
2022/04/08 07:52:49;;;;;;;7.30;0.23;;;8.00;62.60;;;;;;5081053;28;20490;-54
2022/04/08 07:55:20;;;;;;;1.47;0.20;;;8.00;73.50;;;;;;5086778;28;20541;-51
2022/04/08 07:57:47;;;;;;;0.37;0.20;;;8.20;88.20;;;;;;5091904;28;20510;-50
2022/04/08 08:00:16;;;;;;;0.30;0.20;;;8.30;39.30;;;;;;5087408;28;20993;-48
2022/04/08 08:02:45;;;;;;;0.77;0.20;;;8.20;55.60;;;;;;5088052;28;20496;-49
2022/04/08 08:05:12;;;;;;;0.60;0.30;;;8.20;40.70;;;;;;5093123;28;21065;-54
2022/04/08 08:07:50;;;;;;;0.33;0.20;;;8.20;55.10;;;;;;5092612;28;20480;-49
2022/04/08 08:10:18;;;;;;;0.30;0.10;;;8.20;47.50;;;;;;5080506;28;20539;-47
2022/04/08 08:12:45;;;;;;;1.60;0.30;;;8.30;51.00;;;;;;5091566;28;20496;-46
2022/04/08 08:15:12;;;;;;;0.67;0.53;;;8.50;24.00;;;;;;5078908;28;20553;-50
2022/04/08 08:17:40;;;;;;;0.90;0.50;;;8.80;28.40;;;;;;5082679;28;20455;-50
2022/04/08 08:20:10;;;;;;;1.67;0.20;;;8.50;1.00;;;;;;5090367;28;20500;-48
2022/04/08 08:22:37;;;;;;;0.30;0.20;;;8.60;6.70;;;;;;5090685;28;20764;-48
2022/04/08 08:25:05;;;;;;;0.60;0.20;;;8.50;24.80;;;;;;5086397;28;20484;-51
2022/04/08 08:27:37;;;;;;;0.20;0.10;;;8.40;25.70;;;;;;5088603;28;20504;-51
2022/04/08 08:30:05;;;;;;;0.50;0.20;;;8.20;29.10;;;;;;5079569;28;20790;-51
2022/04/08 08:32:32;;;;;;;1.37;0.23;;;8.10;39.20;;;;;;5088488;28;20926;-49
2022/04/08 08:34:59;;;;;;;1.80;0.20;;;8.10;37.30;;;;;;5089948;28;20441;-50
2022/04/08 08:37:27;;;;;;;0.50;0.20;;;8.10;80.20;;;;;;5077607;28;20450;-52
2022/04/08 08:39:56;;;;;;;0.40;0.20;;;8.10;79.50;;;;;;5086086;28;20485;-53
2022/04/08 08:42:24;;;;;;;3.10;0.30;;;8.10;91.00;;;;;;5088885;28;20906;-49
2022/04/08 08:44:52;;;;;;;0.70;0.20;;;8.00;76.00;;;;;;5093189;28;20505;-52
2022/04/08 08:47:19;;;;;;;1.17;0.20;;;8.20;99.90;;;;;;5081121;28;20452;-49
2022/04/08 08:49:51;;;;;;;1.63;0.20;;;8.10;93.30;;;;;;5082337;28;20773;-49
2022/04/08 08:52:19;;;;;;;0.70;0.17;;;8.20;99.90;;;;;;5084746;28;20500;-48
2022/04/08 08:54:48;;;;;;;0.43;0.20;;;8.40;92.50;;;;;;5088484;28;20869;-48
2022/04/08 08:57:16;;;;;;;0.30;0.10;;;8.40;58.10;;;;;;5078264;28;20555;-47
2022/04/08 08:59:44;;;;;;;1.67;0.13;;;8.50;63.40;;;;;;5085050;28;20959;-53
2022/04/08 09:02:13;;;;;;;0.50;0.20;;;8.60;72.50;;;;;;5092442;28;20453;-51
2022/04/08 09:04:43;;;;;;;0.87;0.10;;;8.50;32.70;;;;;;5086349;28;20536;-48
2022/04/08 09:07:23;;;;;;;2.23;0.50;;;8.50;42.20;;;;;;5086083;28;20465;-51
2022/04/08 09:09:54;;;;;;;1.37;0.40;;;8.30;80.50;;;;;;5096769;28;20451;-52
2022/04/08 09:12:23;;;;;;;0.30;0.10;;;8.20;99.90;;;;;;5095413;28;20575;-49
2022/04/08 09:14:50;;;;;;;0.30;0.10;;;8.20;69.70;;;;;;5097054;28;20916;-47
2022/04/08 09:17:18;;;;;;;0.40;0.20;;;8.10;77.50;;;;;;5095015;28;20905;-48
2022/04/08 09:19:48;;;;;;;0.30;0.10;;;8.20;99.90;;;;;;5097618;28;20465;-50
2022/04/08 09:22:15;;;;;;;0.30;0.10;;;8.20;99.90;;;;;;5095989;28;20441;-50
2022/04/08 09:24:42;;;;;;;0.90;0.20;;;8.20;99.90;;;;;;5091509;28;20526;-50
2022/04/08 09:27:11;;;;;;;0.40;0.20;;;8.30;91.20;;;;;;5085594;28;20620;-48
2022/04/08 09:29:38;;;;;;;0.30;0.10;;;8.20;91.50;;;;;;5092754;28;20916;-51
2022/04/08 09:32:10;;;;;;;0.53;0.10;;;8.20;71.60;;;;;;5094152;28;20940;-50
2022/04/08 09:34:37;;;;;;;0.70;0.20;;;8.20;70.70;;;;;;5091017;28;20745;-51
2022/04/08 09:37:10;;;;;;;0.30;0.10;;;8.30;93.90;;;;;;5092878;28;20560;-54
2022/04/08 09:39:37;;;;;;;0.40;0.10;;;8.30;98.90;;;;;;5095002;28;20757;-53
2022/04/08 09:42:08;;;;;;;0.70;0.30;;;8.20;99.90;;;;;;5093391;28;20445;-50
2022/04/08 09:44:42;;;;;;;0.70;0.30;;;8.20;99.90;;;;;;5088895;28;20566;-48
2022/04/08 09:47:08;;;;;;;0.63;0.27;;;8.10;99.90;;;;;;5092227;28;20458;-53
2022/04/08 09:49:36;;;;;;;0.90;0.33;;;8.00;99.90;;;;;;5091731;28;20486;-52
2022/04/08 09:52:06;;;;;;;1.10;0.60;;;7.90;99.90;;;;;;5091236;28;20510;-51
2022/04/08 09:54:35;;;;;;;0.30;0.20;;;7.90;99.90;;;;;;5096083;28;20816;-53
2022/04/08 09:57:02;;;;;;;0.70;0.20;;;7.90;97.10;;;;;;5094500;28;20425;-44
2022/04/08 09:59:30;;;;;;;1.80;0.30;;;7.90;99.90;;;;;;5088025;28;20434;-48
2022/04/08 10:01:59;;;;;;;0.40;0.20;;;7.90;99.90;;;;;;5092359;28;20898;-49
2022/04/08 10:04:26;;;;;;;0.40;0.10;;;8.00;99.90;;;;;;5093298;28;21072;-53
2022/04/08 10:06:53;;;;;;;0.40;0.20;;;8.00;59.60;;;;;;5089121;28;20424;-46
2022/04/08 10:09:23;;;;;;;0.50;0.20;;;8.10;58.90;;;;;;5087700;28;20908;-53
2022/04/08 10:11:57;;;;;;;0.43;0.20;;;8.00;45.30;;;;;;5089846;28;20433;-51
2022/04/08 10:14:43;;;;;;;0.85;0.20;;;7.90;72.20;;;;;;5084819;28;20429;-52
2022/04/08 10:17:11;;;;;;;1.50;0.50;;;7.90;99.90;;;;;;5090047;28;20912;-49
2022/04/08 10:19:38;;;;;;;2.88;1.40;;;8.00;99.90;;;;;;5085785;28;20550;-52
2022/04/08 10:22:16;;;;;;;1.38;0.77;;;8.20;99.90;;;;;;5089253;28;20513;-60
2022/04/08 10:24:52;;;;;;;0.43;0.30;;;8.30;99.90;;;;;;5087256;28;20635;-60
2022/04/08 10:27:29;;;;;;;0.70;0.30;;;8.40;77.60;;;;;;5082946;28;20459;-60
2022/04/08 10:29:56;;;;;;;0.80;0.30;;;8.40;62.00;;;;;;5090625;28;20457;-59
2022/04/08 10:32:25;;;;;;;0.47;0.10;;;8.40;32.00;;;;;;5088603;28;21209;-59
2022/04/08 10:34:52;;;;;;;0.30;0.10;;;8.50;42.10;;;;;;5092952;28;20957;-60
2022/04/08 10:37:23;;;;;;;0.50;0.10;;;8.80;44.80;;;;;;5090742;28;20904;-60
2022/04/08 10:39:57;;;;;;;1.80;0.30;;;9.10;9.20;;;;;;5090196;28;20445;-59
2022/04/08 10:42:24;;;;;;;0.67;0.10;;;9.20;1.00;;;;;;5081533;28;20431;-59
2022/04/08 10:44:51;;;;;;;0.30;0.10;;;9.20;1.00;;;;;;5085798;28;21152;-59
2022/04/08 10:47:21;;;;;;;0.77;0.10;;;9.40;6.80;;;;;;5080974;28;20557;-60
2022/04/08 10:49:53;;;;;;;0.40;0.10;;;9.40;1.00;;;;;;5086123;28;20449;-61
2022/04/08 10:52:25;;;;;;;0.53;0.20;;;9.30;1.00;;;;;;5094553;28;20483;-56
2022/04/08 10:55:04;;;;;;;0.70;0.20;;;9.60;1.00;;;;;;5088420;28;20489;-57
2022/04/08 10:57:34;;;;;;;0.40;0.10;;;9.10;1.00;;;;;;5086983;28;20488;-54
2022/04/08 11:00:05;;;;;;;0.30;0.10;;;9.20;1.00;;;;;;5083183;28;20452;-56
2022/04/08 11:02:35;;;;;;;0.30;0.10;;;9.00;1.00;;;;;;5089519;28;20453;-56
2022/04/08 11:05:05;;;;;;;0.30;0.10;;;9.00;10.60;;;;;;5094400;28;20462;-54
2022/04/08 11:07:32;;;;;;;0.30;0.10;;;9.00;13.90;;;;;;5093454;28;20448;-53
2022/04/08 11:10:00;;;;;;;0.40;0.10;;;9.00;8.90;;;;;;5086577;28;20453;-56
2022/04/08 11:12:30;;;;;;;0.50;0.20;;;8.80;29.30;;;;;;5083284;28;20503;-55
2022/04/08 11:14:58;;;;;;;0.33;0.10;;;9.00;69.30;;;;;;5085069;28;20464;-56
2022/04/08 11:17:34;;;;;;;0.30;0.20;;;9.00;38.50;;;;;;5085130;28;20454;-55
2022/04/08 11:20:05;;;;;;;0.30;0.17;;;9.00;59.60;;;;;;5083995;28;20461;-53
2022/04/08 11:22:39;;;;;;;0.37;0.20;;;8.90;90.30;;;;;;5080704;28;20458;-55
2022/04/08 11:25:08;;;;;;;0.40;0.10;;;8.90;43.90;;;;;;5080413;28;20452;-55
2022/04/08 11:27:34;;;;;;;0.40;0.20;;;8.80;34.70;;;;;;5085057;28;21363;-55
2022/04/08 11:30:01;;;;;;;0.40;0.20;;;8.60;54.70;;;;;;5088380;28;21253;-52
2022/04/08 11:32:31;;;;;;;1.90;0.10;;;8.60;97.80;;;;;;5090560;28;20457;-53
2022/04/08 11:34:57;;;;;;;1.10;0.30;;;8.70;98.20;;;;;;5086023;28;20873;-51
2022/04/08 11:37:28;;;;;;;0.67;0.20;;;8.60;53.90;;;;;;5087876;28;20461;-51
2022/04/08 11:39:58;;;;;;;1.37;0.20;;;8.60;92.10;;;;;;5083576;28;20759;-52
2022/04/08 11:42:26;;;;;;;0.30;0.10;;;8.40;95.10;;;;;;5087962;28;20449;-51
2022/04/08 11:44:53;;;;;;;0.50;0.20;;;8.30;96.70;;;;;;5084190;28;20485;-51
2022/04/08 11:47:31;;;;;;;0.93;0.10;;;8.50;99.90;;;;;;5088665;28;20450;-53
2022/04/08 11:50:03;;;;;;;0.60;0.20;;;8.60;99.90;;;;;;5089800;28;20448;-54
2022/04/08 11:52:31;;;;;;;1.40;0.20;;;8.70;99.90;;;;;;5088720;28;20486;-48
2022/04/08 11:55:04;;;;;;;0.60;0.30;;;8.90;99.90;;;;;;5089749;28;20466;-50
2022/04/08 11:57:32;;;;;;;0.73;0.30;;;8.80;97.70;;;;;;5088392;28;21045;-49
2022/04/08 12:00:01;;;;;;;0.40;0.20;;;8.50;99.90;;;;;;5083789;28;20459;-52
2022/04/08 12:02:28;;;;;;;2.20;0.20;;;8.20;99.90;;;;;;5090166;28;20533;-48
2022/04/08 12:04:56;;;;;;;0.37;0.20;;;8.00;99.90;;;;;;5088859;28;20529;-54
2022/04/08 12:07:24;;;;;;;1.00;0.13;;;8.00;99.90;;;;;;5088224;28;20457;-50
2022/04/08 12:09:52;;;;;;;0.37;0.20;;;8.30;99.90;;;;;;5088391;28;20446;-49
2022/04/08 12:12:24;;;;;;;4.13;1.93;;;8.60;99.90;;;;;;5090818;28;20556;-55
2022/04/08 12:14:50;;;;;;;0.40;0.30;;;8.60;99.90;;;;;;5090014;28;20458;-50
2022/04/08 12:17:17;;;;;;;5.37;2.60;;;8.50;99.90;;;;;;5092894;28;20444;-52
2022/04/08 12:19:47;;;;;;;4.50;2.40;;;8.30;99.90;;;;;;5092604;28;20473;-49
2022/04/08 12:22:16;;;;;;;2.70;0.60;;;8.30;99.90;;;;;;5092587;28;20457;-51
2022/04/08 12:24:43;;;;;;;0.70;0.30;;;8.30;99.90;;;;;;5092468;28;20437;-56
2022/04/08 12:27:17;;;;;;;0.43;0.20;;;8.30;99.90;;;;;;5089915;28;20473;-53
2022/04/08 12:29:45;;;;;;;0.60;0.20;;;8.20;99.90;;;;;;5087500;28;20480;-51
2022/04/08 12:32:16;;;;;;;0.70;0.30;;;8.30;99.90;;;;;;5090629;28;20511;-50
2022/04/08 12:34:43;;;;;;;0.80;0.23;;;8.10;99.90;;;;;;5091939;28;20488;-54
2022/04/08 12:37:10;;;;;;;0.40;0.27;;;8.10;99.90;;;;;;5091538;28;20511;-52
2022/04/08 12:39:40;;;;;;;0.47;0.30;;;7.80;99.90;;;;;;5091573;28;20847;-52
2022/04/08 12:42:07;;;;;;;0.50;0.30;;;7.70;99.90;;;;;;5091078;28;20520;-51
2022/04/08 12:44:36;;;;;;;0.60;0.30;;;7.80;99.90;;;;;;5090510;28;20787;-51
2022/04/08 12:47:04;;;;;;;0.70;0.33;;;7.90;99.90;;;;;;5108610;28;20445;-50
2022/04/08 12:49:31;;;;;;;0.60;0.30;;;7.80;99.90;;;;;;5110371;28;20551;-53
2022/04/08 12:51:58;;;;;;;1.03;0.30;;;7.80;99.90;;;;;;5108813;28;20571;-54
2022/04/08 12:54:25;;;;;;;0.60;0.37;;;8.00;99.90;;;;;;5107122;28;20500;-56
2022/04/08 12:56:52;;;;;;;0.60;0.30;;;8.10;99.90;;;;;;5109618;28;20763;-52
2022/04/08 12:59:19;;;;;;;0.40;0.27;;;8.00;99.90;;;;;;5108997;28;20902;-50
2022/04/08 13:01:47;;;;;;;0.70;0.30;;;7.80;99.90;;;;;;5106271;28;20461;-52
2022/04/08 13:04:14;;;;;;;0.50;0.30;;;7.80;99.90;;;;;;5108684;28;20667;-51
2022/04/08 13:06:41;;;;;;;0.40;0.30;;;7.60;99.90;;;;;;5100987;28;20556;-52